createdAt,value
2023-01-04T00:01:59.963Z,98770.41
2023-01-04T00:04:26.709Z,98752.88
2023-01-04T00:06:53.436Z,98745.16
2023-01-04T00:09:20.174Z,98744.41
2023-01-04T00:11:46.882Z,98720.66
2023-01-04T00:14:14.383Z,98704.72
2023-01-04T00:16:41.150Z,98690.13
2023-01-04T00:19:07.940Z,98701.94
2023-01-04T00:21:34.601Z,98690.75
2023-01-04T00:24:02.119Z,98728.59
2023-01-04T00:26:31.508Z,98724.31
2023-01-04T00:29:00.903Z,98719.66
2023-01-04T00:31:29.020Z,98666.72
2023-01-04T00:33:57.478Z,98645.09
2023-01-04T00:36:25.226Z,98701.94
2023-01-04T00:39:08.025Z,98689.75
2023-01-04T00:42:02.283Z,98679.00
2023-01-04T00:44:29.695Z,98661.25
2023-01-04T00:46:56.508Z,98628.53
2023-01-04T00:49:23.541Z,98629.06
2023-01-04T00:51:50.793Z,98637.22
2023-01-04T00:54:17.765Z,98603.53
2023-01-04T00:56:44.774Z,98585.88
2023-01-04T00:59:13.683Z,98623.16
2023-01-04T01:01:40.780Z,98602.44
2023-01-04T01:04:08.018Z,98619.91
2023-01-04T01:06:34.989Z,98622.19
2023-01-04T01:09:02.055Z,98601.53
2023-01-04T01:11:29.748Z,98567.78
2023-01-04T01:13:57.691Z,98603.53
2023-01-04T01:16:53.235Z,98593.47
2023-01-04T01:19:12.395Z,98597.25
2023-01-04T01:21:39.666Z,98587.88
2023-01-04T01:24:06.896Z,98594.03
2023-01-04T01:26:33.636Z,98590.38
2023-01-04T01:29:00.507Z,98543.13
2023-01-04T01:31:29.099Z,98546.28
2023-01-04T01:33:57.425Z,98562.50
2023-01-04T01:36:26.413Z,98526.97
2023-01-04T01:38:54.236Z,98519.03
2023-01-04T01:41:24.223Z,98519.66
2023-01-04T01:43:55.156Z,98465.13
2023-01-04T01:46:48.866Z,98481.66
2023-01-04T01:49:44.849Z,98507.78
2023-01-04T01:52:22.843Z,98485.72
2023-01-04T01:55:00.154Z,98458.78
2023-01-04T01:57:30.865Z,98455.56
2023-01-04T02:00:01.529Z,98400.31
2023-01-04T02:02:28.427Z,98461.59
2023-01-04T02:04:55.902Z,98416.72
2023-01-04T02:07:26.679Z,98419.31
2023-01-04T02:09:55.020Z,98409.59
2023-01-04T02:12:22.093Z,98389.75
2023-01-04T02:14:50.888Z,98417.63
2023-01-04T02:17:24.334Z,98348.22
2023-01-04T02:20:10.588Z,98388.31
2023-01-04T02:23:00.331Z,98424.94
2023-01-04T02:25:59.944Z,98399.50
2023-01-04T02:29:00.742Z,98437.06
2023-01-04T02:31:47.610Z,98439.69
2023-01-04T02:34:36.124Z,98442.19
2023-01-04T02:37:35.177Z,98448.03
2023-01-04T02:40:31.174Z,98474.03
2023-01-04T02:43:25.131Z,98466.63
2023-01-04T02:46:03.197Z,98410.34
2023-01-04T02:48:59.335Z,98428.28
2023-01-04T02:51:34.897Z,98431.09
2023-01-04T02:54:09.016Z,98411.38
2023-01-04T02:56:38.967Z,98413.66
2023-01-04T02:59:05.626Z,98410.13
2023-01-04T03:02:09.992Z,98408.25
2023-01-04T03:05:32.907Z,98407.19
2023-01-04T03:08:13.091Z,98424.38
2023-01-04T03:10:45.374Z,98392.41
2023-01-04T03:13:26.048Z,98416.06
2023-01-04T03:16:04.865Z,98427.09
2023-01-04T03:18:36.344Z,98412.66
2023-01-04T03:21:04.989Z,98420.75
2023-01-04T03:23:55.519Z,98401.16
2023-01-04T03:26:46.734Z,98371.22
2023-01-04T03:29:50.268Z,98390.13
2023-01-04T03:32:46.328Z,98436.06
2023-01-04T03:35:28.272Z,98416.66
2023-01-04T03:38:42.762Z,98369.53
2023-01-04T03:41:53.945Z,98455.63
2023-01-04T03:44:53.453Z,98386.09
2023-01-04T03:47:47.971Z,98420.19
2023-01-04T03:50:33.259Z,98413.31
2023-01-04T03:53:01.515Z,98398.78
2023-01-04T03:55:30.789Z,98432.63
2023-01-04T03:57:59.351Z,98402.88
2023-01-04T04:00:26.587Z,98435.03
2023-01-04T04:02:53.324Z,98387.50
2023-01-04T04:05:43.226Z,98442.19
2023-01-04T04:08:28.844Z,98450.78
2023-01-04T04:11:23.302Z,98450.13
2023-01-04T04:13:51.308Z,98475.41
2023-01-04T04:16:18.107Z,98441.28
2023-01-04T04:18:44.941Z,98439.50
2023-01-04T04:21:11.623Z,98409.56
2023-01-04T04:23:38.302Z,98462.63
2023-01-04T04:26:05.464Z,98452.38
2023-01-04T04:28:32.528Z,98440.63
2023-01-04T04:30:59.261Z,98437.06
2023-01-04T04:33:26.088Z,98482.19
2023-01-04T04:35:54.740Z,98421.03
2023-01-04T04:38:22.252Z,98513.09
2023-01-04T04:41:08.083Z,98522.31
2023-01-04T04:43:35.664Z,98508.28
2023-01-04T04:46:03.014Z,98511.19
2023-01-04T04:48:29.815Z,98504.72
2023-01-04T04:50:56.564Z,98525.50
2023-01-04T04:53:23.619Z,98509.34
2023-01-04T04:55:54.439Z,98509.69
2023-01-04T04:58:21.597Z,98571.38
2023-01-04T05:00:48.335Z,98499.69
2023-01-04T05:03:15.313Z,98542.66
2023-01-04T05:05:42.627Z,98558.41
2023-01-04T05:08:09.383Z,98541.50
2023-01-04T05:10:37.779Z,98545.84
2023-01-04T05:13:06.432Z,98590.44
2023-01-04T05:15:38.928Z,98502.75
2023-01-04T05:18:06.941Z,98577.97
2023-01-04T05:20:33.916Z,98583.28
2023-01-04T05:23:01.118Z,98612.63
2023-01-04T05:25:28.122Z,98568.63
2023-01-04T05:27:54.899Z,98547.91
2023-01-04T05:30:40.534Z,98561.41
2023-01-04T05:33:08.069Z,98616.84
2023-01-04T05:35:34.793Z,98571.81
2023-01-04T05:38:01.644Z,98567.13
2023-01-04T05:40:28.437Z,98582.94
2023-01-04T05:42:55.194Z,98611.72
2023-01-04T05:45:21.975Z,98632.59
2023-01-04T05:47:53.362Z,98640.97
2023-01-04T05:50:22.119Z,98610.13
2023-01-04T05:52:49.505Z,98633.19
2023-01-04T05:55:16.266Z,98600.41
2023-01-04T05:57:43.512Z,98587.63
2023-01-04T06:00:11.902Z,98581.09
2023-01-04T06:02:38.926Z,98599.88
2023-01-04T06:05:06.029Z,98607.47
2023-01-04T06:07:33.210Z,98696.75
2023-01-04T06:09:59.896Z,98647.34
2023-01-04T06:12:26.779Z,98669.56
2023-01-04T06:14:53.924Z,98701.94
2023-01-04T06:17:20.938Z,98646.47
2023-01-04T06:19:47.674Z,98640.69
2023-01-04T06:22:14.965Z,98711.91
2023-01-04T06:24:41.688Z,98669.81
2023-01-04T06:27:08.462Z,98709.97
2023-01-04T06:29:35.173Z,98674.19
2023-01-04T06:32:01.997Z,98650.84
2023-01-04T06:34:31.146Z,98707.50
2023-01-04T06:36:58.803Z,98688.97
2023-01-04T06:39:25.759Z,98709.56
2023-01-04T06:41:52.600Z,98687.81
2023-01-04T06:44:19.312Z,98708.06
2023-01-04T06:46:46.018Z,98681.56
2023-01-04T06:49:12.687Z,98720.19
2023-01-04T06:51:39.400Z,98740.25
2023-01-04T06:54:06.319Z,98687.97
2023-01-04T06:56:33.718Z,98709.63
2023-01-04T06:59:00.464Z,98722.97
2023-01-04T07:01:27.233Z,98730.59
2023-01-04T07:03:54.149Z,98750.66
2023-01-04T07:06:21.010Z,98780.25
2023-01-04T07:08:47.749Z,98756.66
2023-01-04T07:11:14.406Z,98738.88
2023-01-04T07:13:41.103Z,98731.91
2023-01-04T07:16:07.806Z,98771.47
2023-01-04T07:18:34.528Z,98740.47
2023-01-04T07:21:01.230Z,98741.88
2023-01-04T07:23:27.983Z,98785.41
2023-01-04T07:25:54.754Z,98769.78
2023-01-04T07:28:39.940Z,98783.91
2023-01-04T07:31:08.162Z,98784.47
2023-01-04T07:33:35.119Z,98789.66
2023-01-04T07:36:03.861Z,98777.28
2023-01-04T07:38:30.537Z,98779.66
2023-01-04T07:40:57.469Z,98779.66
2023-01-04T07:43:27.668Z,98786.09
2023-01-04T07:45:55.424Z,98803.44
2023-01-04T07:48:22.297Z,98811.94
2023-01-04T07:50:49.969Z,98828.22
2023-01-04T07:53:16.683Z,98792.53
2023-01-04T07:55:43.403Z,98823.69
2023-01-04T07:58:10.158Z,98827.69
2023-01-04T08:00:37.095Z,98821.88
2023-01-04T08:03:04.716Z,98833.25
2023-01-04T08:05:35.367Z,98878.94
2023-01-04T08:08:02.130Z,98839.88
2023-01-04T08:10:29.239Z,98818.56
2023-01-04T08:12:59.133Z,98909.00
2023-01-04T08:15:26.846Z,98842.13
2023-01-04T08:17:53.666Z,98870.00
2023-01-04T08:20:20.455Z,98872.22
2023-01-04T08:22:47.204Z,98834.31
2023-01-04T08:25:14.205Z,98886.44
2023-01-04T08:27:41.920Z,98856.94
2023-01-04T08:30:11.742Z,98872.47
2023-01-04T08:32:40.840Z,98906.78
2023-01-04T08:35:08.863Z,98897.47
2023-01-04T08:37:35.599Z,98872.69
2023-01-04T08:40:02.745Z,98874.97
2023-01-04T08:42:31.861Z,98888.66
2023-01-04T08:45:01.561Z,98890.41
2023-01-04T08:47:32.929Z,98875.97
2023-01-04T08:50:03.465Z,98919.16
2023-01-04T08:52:36.500Z,98875.16
2023-01-04T08:55:08.313Z,98926.91
2023-01-04T08:57:38.935Z,98902.81
2023-01-04T09:00:06.705Z,98937.63
2023-01-04T09:02:33.648Z,98952.91
2023-01-04T09:05:03.232Z,98921.84
2023-01-04T09:07:31.420Z,98964.19
2023-01-04T09:09:58.219Z,98947.78
2023-01-04T09:12:24.988Z,98933.19
2023-01-04T09:14:51.758Z,98951.22
2023-01-04T09:17:18.466Z,98928.41
2023-01-04T09:19:45.228Z,98930.25
2023-01-04T09:22:11.971Z,98966.66
2023-01-04T09:24:38.652Z,98949.47
2023-01-04T09:27:05.417Z,98964.31
2023-01-04T09:29:32.085Z,98966.53
2023-01-04T09:31:58.875Z,98987.25
2023-01-04T09:34:25.853Z,98999.94
2023-01-04T09:36:52.561Z,98977.84
2023-01-04T09:39:23.049Z,98943.59
2023-01-04T09:41:58.402Z,99018.22
2023-01-04T09:47:33.379Z,99032.41
2023-01-04T09:50:06.276Z,99017.53
2023-01-04T09:52:43.458Z,98961.78
2023-01-04T09:55:37.868Z,98967.06
2023-01-04T09:58:39.835Z,99036.22
2023-01-04T10:01:08.678Z,99051.22
2023-01-04T10:03:39.052Z,98983.66
2023-01-04T10:06:10.222Z,98996.66
2023-01-04T10:08:36.880Z,99028.22
2023-01-04T10:11:22.478Z,99071.13
2023-01-04T10:14:13.813Z,99067.88
2023-01-04T10:17:14.088Z,98974.25
2023-01-04T10:23:21.091Z,99078.47
2023-01-04T10:26:21.739Z,99076.72
2023-01-04T10:29:11.316Z,99086.75
2023-01-04T10:31:46.057Z,99006.25
2023-01-04T10:34:21.028Z,99099.94
2023-01-04T10:36:49.927Z,99068.63
2023-01-04T10:39:26.957Z,99080.97
2023-01-04T10:42:16.877Z,99066.78
2023-01-04T10:44:54.572Z,99112.47
2023-01-04T10:47:44.869Z,99101.59
2023-01-04T10:50:14.798Z,99118.84
2023-01-04T10:52:48.138Z,99123.25
2023-01-04T10:55:30.359Z,99079.31
2023-01-04T10:58:02.831Z,99072.06
2023-01-04T11:00:41.196Z,99083.78
2023-01-04T11:03:13.356Z,99057.88
2023-01-04T11:05:59.743Z,99141.28
2023-01-04T11:08:36.373Z,99108.25
2023-01-04T11:11:11.110Z,99133.66
2023-01-04T11:13:38.846Z,99122.97
2023-01-04T11:16:06.811Z,99148.88
2023-01-04T11:18:37.579Z,99134.75
2023-01-04T11:21:12.617Z,99111.72
2023-01-04T11:23:39.424Z,99133.84
2023-01-04T11:26:22.596Z,99146.94
2023-01-04T11:28:57.727Z,99147.03
2023-01-04T11:31:44.471Z,99173.22
2023-01-04T11:34:11.339Z,99179.25
2023-01-04T11:36:40.995Z,99158.50
2023-01-04T11:39:18.478Z,99167.78
2023-01-04T11:42:06.128Z,99196.25
2023-01-04T11:44:34.673Z,99188.69
2023-01-04T11:47:26.753Z,99177.88
2023-01-04T11:49:55.829Z,99201.72
2023-01-04T11:52:34.667Z,99178.34
2023-01-04T11:55:16.907Z,99154.53
2023-01-04T11:57:43.854Z,99214.91
2023-01-04T12:00:15.356Z,99164.84
2023-01-04T12:03:00.705Z,99203.72
2023-01-04T12:05:32.105Z,99155.75
2023-01-04T12:07:59.408Z,99215.88
2023-01-04T12:10:28.069Z,99100.22
2023-01-04T12:13:00.599Z,99161.81
2023-01-04T12:15:59.633Z,99211.47
2023-01-04T12:18:29.137Z,99127.47
2023-01-04T12:20:57.159Z,99159.97
2023-01-04T12:23:24.144Z,99146.63
2023-01-04T12:25:52.389Z,99173.94
2023-01-04T12:28:37.316Z,99215.72
2023-01-04T12:31:19.961Z,99242.94
2023-01-04T12:33:51.628Z,99238.63
2023-01-04T12:36:20.847Z,99230.31
2023-01-04T12:39:11.963Z,99247.59
2023-01-04T12:41:38.662Z,99259.38
2023-01-04T12:44:37.788Z,99215.31
2023-01-04T12:47:48.300Z,99264.69
2023-01-04T12:50:23.347Z,99265.03
2023-01-04T12:53:29.333Z,99267.13
2023-01-04T12:55:55.914Z,99220.25
2023-01-04T13:02:23.869Z,99233.03
2023-01-04T13:05:25.719Z,99281.41
2023-01-04T13:07:51.493Z,99295.44
2023-01-04T13:10:27.301Z,99289.78
2023-01-04T13:13:09.172Z,99287.53
2023-01-04T13:16:01.823Z,99293.50
2023-01-04T13:18:37.555Z,99297.59
2023-01-04T13:21:15.718Z,99225.59
2023-01-04T13:23:54.506Z,99290.22
2023-01-04T13:26:27.233Z,99295.69
2023-01-04T13:29:18.688Z,99306.41
2023-01-04T13:31:48.485Z,99315.59
2023-01-04T13:34:30.340Z,99325.97
2023-01-04T13:37:12.374Z,99319.41
2023-01-04T13:39:45.266Z,99264.06
2023-01-04T13:42:26.935Z,99332.38
2023-01-04T13:47:44.867Z,99271.09
2023-01-04T13:50:37.583Z,99301.28
2023-01-04T13:53:08.173Z,99288.22
2023-01-04T13:55:39.329Z,99340.22
2023-01-04T13:58:17.650Z,99340.75
2023-01-04T14:00:45.922Z,99344.78
2023-01-04T14:03:45.532Z,99276.47
2023-01-04T14:06:14.843Z,99346.94
2023-01-04T14:08:59.569Z,99360.91
2023-01-04T14:12:07.848Z,99312.72
2023-01-04T14:14:49.525Z,99344.09
2023-01-04T14:17:17.579Z,99383.84
2023-01-04T14:19:54.886Z,99378.44
2023-01-04T14:22:21.536Z,99385.00
2023-01-04T14:27:38.214Z,99395.03
2023-01-04T14:30:20.498Z,99392.69
2023-01-04T14:32:58.170Z,99347.88
2023-01-04T14:35:26.540Z,99335.59
2023-01-04T14:37:54.081Z,99359.50
2023-01-04T14:40:28.523Z,99415.59
2023-01-04T14:42:55.438Z,99388.81
2023-01-04T14:45:22.452Z,99367.88
2023-01-04T14:47:49.462Z,99378.47
2023-01-04T14:50:17.818Z,99359.75
2023-01-04T14:52:52.319Z,99426.25
2023-01-04T14:55:20.104Z,99400.28
2023-01-04T14:57:46.998Z,99365.81
2023-01-04T15:00:19.531Z,99387.50
2023-01-04T15:02:50.476Z,99381.03
2023-01-04T15:05:20.451Z,99404.72
2023-01-04T15:07:47.702Z,99407.56
2023-01-04T15:10:26.080Z,99456.00
2023-01-04T15:12:53.795Z,99450.66
2023-01-04T15:15:20.939Z,99415.81
2023-01-04T15:17:48.098Z,99422.56
2023-01-04T15:20:14.992Z,99416.84
2023-01-04T15:22:41.755Z,99419.63
2023-01-04T15:25:10.357Z,99436.63
2023-01-04T15:27:42.188Z,99445.09
2023-01-04T15:30:10.993Z,99421.56
2023-01-04T15:32:37.780Z,99479.94
2023-01-04T15:35:04.893Z,99432.22
2023-01-04T15:37:31.657Z,99461.59
2023-01-04T15:40:02.642Z,99474.78
2023-01-04T15:42:48.589Z,99473.59
2023-01-04T15:45:15.489Z,99472.63
2023-01-04T15:47:42.181Z,99476.34
2023-01-04T15:50:09.023Z,99475.06
2023-01-04T15:52:35.900Z,99464.66
2023-01-04T15:55:02.723Z,99477.41
2023-01-04T15:57:29.392Z,99473.53
2023-01-04T15:59:56.099Z,99550.47
2023-01-04T16:02:22.835Z,99491.53
2023-01-04T16:04:50.526Z,99431.41
2023-01-04T16:07:18.316Z,99489.00
2023-01-04T16:09:45.196Z,99512.59
2023-01-04T16:12:30.491Z,99504.44
2023-01-04T16:14:57.162Z,99499.03
2023-01-04T16:17:25.323Z,99517.53
2023-01-04T16:19:52.132Z,99499.88
2023-01-04T16:22:18.818Z,99520.91
2023-01-04T16:25:09.788Z,99527.50
2023-01-04T16:27:35.704Z,99533.38
2023-01-04T16:30:04.076Z,99553.81
2023-01-04T16:32:30.784Z,99530.53
2023-01-04T16:34:57.734Z,99528.78
2023-01-04T16:37:28.985Z,99565.63
2023-01-04T16:40:11.118Z,99545.34
2023-01-04T16:42:38.114Z,99508.16
2023-01-04T16:45:06.513Z,99549.22
2023-01-04T16:47:43.906Z,99560.75
2023-01-04T16:50:14.498Z,99605.81
2023-01-04T16:52:41.275Z,99551.16
2023-01-04T16:55:09.388Z,99526.81
2023-01-04T16:57:36.497Z,99540.31
2023-01-04T17:00:07.082Z,99564.09
2023-01-04T17:02:33.876Z,99605.63
2023-01-04T17:05:01.213Z,99534.63
2023-01-04T17:07:32.593Z,99530.41
2023-01-04T17:10:01.046Z,99577.25
2023-01-04T17:15:41.900Z,99663.78
2023-01-04T17:18:02.187Z,99602.72
2023-01-04T17:20:29.172Z,99556.72
2023-01-04T17:22:55.911Z,99640.16
2023-01-04T17:25:24.928Z,99599.53
2023-01-04T17:27:51.666Z,99619.03
2023-01-04T17:30:18.480Z,99583.31
2023-01-04T17:32:45.151Z,99608.25
2023-01-04T17:35:15.037Z,99579.41
2023-01-04T17:37:41.840Z,99626.94
2023-01-04T17:40:09.847Z,99577.41
2023-01-04T17:42:36.630Z,99631.06
2023-01-04T17:45:06.119Z,99584.72
2023-01-04T17:47:32.792Z,99608.28
2023-01-04T17:50:00.825Z,99679.19
2023-01-04T17:52:31.279Z,99623.94
2023-01-04T17:54:58.494Z,99674.50
2023-01-04T17:57:25.187Z,99676.31
2023-01-04T17:59:51.943Z,99701.72
2023-01-04T18:02:18.726Z,99694.88
2023-01-04T18:04:45.685Z,99726.31
2023-01-04T18:09:38.959Z,99682.25
2023-01-04T18:12:05.799Z,99702.81
2023-01-04T18:14:32.621Z,99720.06
2023-01-04T18:16:59.498Z,99699.66
2023-01-04T18:19:28.878Z,99707.63
2023-01-04T18:21:56.493Z,99698.94
2023-01-04T18:24:39.274Z,99718.66
2023-01-04T18:27:21.610Z,99786.81
2023-01-04T18:29:49.861Z,99723.44
2023-01-04T18:32:16.629Z,99794.41
2023-01-04T18:34:43.388Z,99730.75
2023-01-04T18:37:10.059Z,99749.63
2023-01-04T18:39:36.859Z,99762.19
2023-01-04T18:42:03.685Z,99738.13
2023-01-04T18:44:33.470Z,99768.91
2023-01-04T18:47:00.975Z,99707.19
2023-01-04T18:49:27.631Z,99751.34
2023-01-04T18:51:54.315Z,99756.13
2023-01-04T18:54:21.863Z,99779.94
2023-01-04T18:56:48.846Z,99767.94
2023-01-04T18:59:17.422Z,99771.00
2023-01-04T19:01:45.630Z,99775.19
2023-01-04T19:04:13.062Z,99812.41
2023-01-04T19:06:40.874Z,99825.34
2023-01-04T19:09:08.110Z,99824.75
2023-01-04T19:11:35.660Z,99806.41
2023-01-04T19:14:03.514Z,99769.78
2023-01-04T19:16:31.512Z,99775.44
2023-01-04T19:19:01.825Z,99762.63
2023-01-04T19:21:29.110Z,99850.41
2023-01-04T19:23:56.233Z,99832.81
2023-01-04T19:26:23.603Z,99854.25
2023-01-04T19:28:51.227Z,99846.22
2023-01-04T19:31:20.614Z,99849.66
2023-01-04T19:33:48.483Z,99802.19
2023-01-04T19:36:16.839Z,99824.94
2023-01-04T19:38:43.663Z,99814.06
2023-01-04T19:41:19.833Z,99873.72
2023-01-04T19:43:47.224Z,99830.47
2023-01-04T19:46:13.999Z,99824.78
2023-01-04T19:48:41.190Z,99831.75
2023-01-04T19:51:09.917Z,99901.19
2023-01-04T19:53:37.042Z,99875.66
2023-01-04T19:56:03.897Z,99859.69
2023-01-04T19:58:31.060Z,99840.19
2023-01-04T20:00:57.881Z,99903.84
2023-01-04T20:03:27.728Z,99903.66
2023-01-04T20:05:55.496Z,99909.53
2023-01-04T20:08:22.227Z,99844.94
2023-01-04T20:10:55.990Z,99925.22
2023-01-04T20:13:22.863Z,99885.69
2023-01-04T20:15:51.303Z,99886.44
2023-01-04T20:18:18.404Z,99856.22
2023-01-04T20:20:46.117Z,99932.06
2023-01-04T20:23:14.090Z,99906.91
2023-01-04T20:25:43.778Z,99940.97
2023-01-04T20:28:10.650Z,99914.22
2023-01-04T20:30:37.890Z,99855.97
2023-01-04T20:33:05.657Z,99931.81
2023-01-04T20:35:33.086Z,99913.06
2023-01-04T20:37:59.809Z,99923.88
2023-01-04T20:40:28.247Z,99942.25
2023-01-04T20:43:14.137Z,99951.72
2023-01-04T20:45:42.223Z,99925.91
2023-01-04T20:48:09.192Z,99940.38
2023-01-04T20:50:36.316Z,99910.72
2023-01-04T20:53:04.017Z,99918.13
2023-01-04T20:55:30.778Z,99993.56
2023-01-04T20:57:57.896Z,99934.94
2023-01-04T21:00:24.711Z,99922.09
2023-01-04T21:02:51.651Z,99961.13
2023-01-04T21:05:18.540Z,99961.22
2023-01-04T21:07:45.287Z,99934.25
2023-01-04T21:10:11.971Z,99973.59
2023-01-04T21:12:38.913Z,99969.22
2023-01-04T21:15:06.781Z,99975.56
2023-01-04T21:17:33.463Z,99977.34
2023-01-04T21:20:00.210Z,100010.63
2023-01-04T21:22:26.943Z,99974.28
2023-01-04T21:24:53.614Z,100001.91
2023-01-04T21:27:20.315Z,99992.59
2023-01-04T21:29:47.319Z,100013.16
2023-01-04T21:32:14.052Z,100011.97
2023-01-04T21:34:40.806Z,100003.66
2023-01-04T21:37:07.493Z,99965.84
2023-01-04T21:39:34.306Z,100001.09
2023-01-04T21:42:00.968Z,100003.69
2023-01-04T21:44:27.984Z,100028.44
2023-01-04T21:46:54.721Z,100047.31
2023-01-04T21:49:21.495Z,100035.44
2023-01-04T21:51:48.365Z,100069.78
2023-01-04T21:54:15.016Z,100072.84
2023-01-04T21:56:41.749Z,100073.00
2023-01-04T21:59:08.459Z,100056.41
2023-01-04T22:01:35.686Z,100097.00
2023-01-04T22:04:03.633Z,100045.38
2023-01-04T22:06:30.424Z,100065.78
2023-01-04T22:08:58.684Z,100039.56
2023-01-04T22:11:25.441Z,100073.75
2023-01-04T22:13:52.198Z,100062.84
2023-01-04T22:16:19.021Z,100090.00
2023-01-04T22:18:48.263Z,100067.81
2023-01-04T22:21:16.814Z,100151.56
2023-01-04T22:23:43.698Z,100080.38
2023-01-04T22:26:10.577Z,100108.06
2023-01-04T22:28:37.638Z,100117.09
2023-01-04T22:31:10.383Z,100141.44
2023-01-04T22:33:37.794Z,100165.28
2023-01-04T22:36:15.413Z,100111.22
2023-01-04T22:38:46.609Z,100125.72
2023-01-04T22:41:16.515Z,100153.41
2023-01-04T22:43:44.401Z,100127.72
2023-01-04T22:46:17.610Z,100105.09
2023-01-04T22:48:45.611Z,100181.81
2023-01-04T22:51:15.199Z,100145.16
2023-01-04T22:53:42.046Z,100147.38
2023-01-04T22:56:20.760Z,100172.88
2023-01-04T22:58:55.190Z,100195.94
2023-01-04T23:01:30.948Z,100155.81
2023-01-04T23:03:59.759Z,100152.63
2023-01-04T23:06:29.251Z,100181.81
2023-01-04T23:09:04.935Z,100209.53
2023-01-04T23:11:33.305Z,100144.31
2023-01-04T23:14:02.519Z,100110.81
2023-01-04T23:16:33.149Z,100182.69
2023-01-04T23:19:01.743Z,100168.19
2023-01-04T23:21:29.243Z,100211.75
2023-01-04T23:23:56.036Z,100196.53
2023-01-04T23:26:24.466Z,100191.84
2023-01-04T23:28:51.844Z,100186.72
2023-01-04T23:31:21.740Z,100220.03
2023-01-04T23:33:52.464Z,100219.47
2023-01-04T23:36:22.861Z,100211.09
2023-01-04T23:38:54.973Z,100189.59
2023-01-04T23:41:42.424Z,100230.53
2023-01-04T23:44:16.943Z,100251.41
2023-01-04T23:46:44.070Z,100230.81
2023-01-04T23:49:12.043Z,100259.16
2023-01-04T23:51:38.848Z,100170.38
2023-01-04T23:54:06.274Z,100266.56
2023-01-04T23:56:33.006Z,100212.22
2023-01-04T23:58:59.726Z,100236.88
